Time;durP1;ratioP1;P1;durP2;ratioP2;P2;SDS_P1;SDS_P2;PMS_P1;PMS_P2;Temp;Humidity;BMP_temperature;BMP_pressure;BME280_temperature;BME280_humidity;BME280_pressure;Samples;Min_cycle;Max_cycle;Signal;HPM_P1;HPM_P2
2022/05/25 00:00:18;;;;;;;3.92;2.50;;;9.80;99.90;;;;;;5071482;28;20710;-84
2022/05/25 00:02:45;;;;;;;3.45;2.15;;;9.80;99.90;;;;;;5054483;28;20067;-84
2022/05/25 00:05:13;;;;;;;3.60;1.90;;;9.80;99.90;;;;;;5070649;28;20090;-84
2022/05/25 00:15:13;;;;;;;3.25;2.15;;;9.80;99.90;;;;;;5072446;28;20066;-84
2022/05/25 00:17:39;;;;;;;2.47;1.92;;;9.80;99.90;;;;;;5071647;28;20032;-84
2022/05/25 00:20:06;;;;;;;2.20;1.65;;;9.80;99.90;;;;;;5070796;28;20086;-84
2022/05/25 00:22:52;;;;;;;4.78;1.90;;;9.80;99.90;;;;;;5054174;28;20039;-84
2022/05/25 00:25:30;;;;;;;4.28;1.83;;;9.70;99.90;;;;;;5071107;28;20056;-85
2022/05/25 00:28:01;;;;;;;4.72;1.98;;;9.70;99.90;;;;;;5071140;28;20033;-84
2022/05/25 00:30:27;;;;;;;7.33;2.10;;;9.70;99.90;;;;;;5071199;28;20361;-84
2022/05/25 00:32:55;;;;;;;5.93;1.98;;;9.60;99.90;;;;;;5072157;28;20028;-84
2022/05/25 00:35:22;;;;;;;6.00;2.55;;;9.70;99.90;;;;;;5054318;28;20033;-85
2022/05/25 00:37:48;;;;;;;5.90;2.55;;;9.80;99.90;;;;;;5070320;28;20514;-84
2022/05/25 00:40:18;;;;;;;6.25;2.20;;;9.90;99.90;;;;;;5057622;28;20028;-84
2022/05/25 00:42:44;;;;;;;4.13;1.90;;;9.80;99.90;;;;;;5057449;28;20036;-84
2022/05/25 00:45:11;;;;;;;3.60;2.03;;;9.80;99.90;;;;;;5073793;28;20842;-84
2022/05/25 00:47:40;;;;;;;3.33;1.73;;;9.80;99.90;;;;;;5073767;28;20638;-84
2022/05/25 00:50:10;;;;;;;4.80;1.75;;;9.90;99.90;;;;;;5057661;28;20793;-84
2022/05/25 00:52:38;;;;;;;2.85;1.83;;;10.00;99.90;;;;;;5057543;28;20768;-85
2022/05/25 00:55:07;;;;;;;2.47;1.48;;;10.10;99.90;;;;;;5075358;28;20059;-84
2022/05/25 00:57:37;;;;;;;3.83;1.90;;;10.10;99.90;;;;;;5073382;28;20036;-84
2022/05/25 01:00:16;;;;;;;5.50;2.47;;;10.20;99.90;;;;;;5057396;28;20025;-84
2022/05/25 01:02:46;;;;;;;3.65;1.58;;;10.20;99.90;;;;;;5057396;28;20123;-84
2022/05/25 01:05:14;;;;;;;2.20;1.60;;;10.20;99.90;;;;;;5057148;28;20028;-84
2022/05/25 01:08:03;;;;;;;4.55;2.10;;;10.30;99.90;;;;;;5075020;28;20032;-85
2022/05/25 01:11:04;;;;;;;6.18;1.95;;;10.30;99.90;;;;;;5057621;28;20764;-84
2022/05/25 01:14:16;;;;;;;2.97;1.60;;;10.30;99.90;;;;;;5057086;28;20431;-84
2022/05/25 01:17:03;;;;;;;3.40;1.88;;;10.30;99.90;;;;;;5056563;28;20679;-84
2022/05/25 01:20:03;;;;;;;5.30;1.80;;;10.30;99.90;;;;;;5056017;28;20055;-84
2022/05/25 01:26:32;;;;;;;4.70;1.67;;;10.20;99.90;;;;;;5074062;28;20036;-84
2022/05/25 01:29:15;;;;;;;5.25;1.80;;;10.20;99.90;;;;;;5055935;28;20098;-84
2022/05/25 01:31:55;;;;;;;3.25;1.20;;;10.10;99.90;;;;;;5056375;28;20453;-84
2022/05/25 01:34:45;;;;;;;2.92;1.42;;;10.10;99.90;;;;;;5056768;28;20131;-84
2022/05/25 01:37:21;;;;;;;2.75;1.65;;;10.00;99.90;;;;;;5073493;28;20055;-84
2022/05/25 01:40:04;;;;;;;2.97;1.55;;;9.90;99.90;;;;;;5074690;28;20545;-84
2022/05/25 01:42:40;;;;;;;3.33;1.88;;;9.90;99.90;;;;;;5073485;28;20563;-84
2022/05/25 01:45:08;;;;;;;3.70;1.90;;;9.80;99.90;;;;;;5073049;28;20365;-84
2022/05/25 01:47:37;;;;;;;2.47;1.70;;;9.80;99.90;;;;;;5073070;28;20033;-84
2022/05/25 01:50:10;;;;;;;2.92;1.55;;;9.80;99.90;;;;;;5055996;28;20709;-84
2022/05/25 01:52:43;;;;;;;3.15;1.83;;;9.80;99.90;;;;;;5072839;28;20059;-84
2022/05/25 01:55:14;;;;;;;3.83;1.80;;;9.70;99.90;;;;;;5056311;28;20035;-84
2022/05/25 01:57:44;;;;;;;;;;;9.60;99.90;;;;;;5072927;28;20387;-84
2022/05/25 02:00:25;;;;;;;3.90;2.20;;;9.60;99.90;;;;;;5055910;28;19908;-84
2022/05/25 02:05:39;;;;;;;2.65;1.80;;;9.50;99.90;;;;;;5073705;28;20029;-84
2022/05/25 02:08:10;;;;;;;6.47;1.63;;;9.50;99.90;;;;;;5055980;28;20028;-84
2022/05/25 02:10:49;;;;;;;;;;;9.50;99.90;;;;;;5074281;28;20033;-84
2022/05/25 02:13:32;;;;;;;3.50;1.77;;;9.50;99.90;;;;;;5072509;28;19923;-84
2022/05/25 02:16:24;;;;;;;2.38;1.60;;;9.50;99.90;;;;;;5072703;28;20032;-85
2022/05/25 02:19:14;;;;;;;5.32;2.25;;;9.50;99.90;;;;;;5072226;28;20036;-85
2022/05/25 02:21:57;;;;;;;2.00;1.60;;;9.50;99.90;;;;;;5072854;28;20043;-84
2022/05/25 02:24:31;;;;;;;1.30;1.20;;;9.50;99.90;;;;;;5072013;28;20036;-84
2022/05/25 02:27:15;;;;;;;2.47;1.95;;;9.40;99.90;;;;;;5055586;28;20028;-85
2022/05/25 02:29:47;;;;;;;1.45;1.35;;;9.40;99.90;;;;;;5055571;28;20028;-84
2022/05/25 02:32:32;;;;;;;2.35;1.63;;;9.30;99.90;;;;;;5072126;28;20032;-84
2022/05/25 02:34:59;;;;;;;3.22;1.88;;;9.40;99.90;;;;;;5055103;28;20086;-84
2022/05/25 02:37:29;;;;;;;4.30;1.60;;;9.40;99.90;;;;;;5071885;28;20037;-84
2022/05/25 02:39:56;;;;;;;4.03;1.95;;;9.40;99.90;;;;;;5072075;28;20177;-84
2022/05/25 02:42:23;;;;;;;5.60;2.00;;;9.50;99.90;;;;;;5055589;28;20029;-84
2022/05/25 02:44:50;;;;;;;2.97;1.58;;;9.50;99.90;;;;;;5071945;28;20024;-85
2022/05/25 02:47:16;;;;;;;5.32;2.55;;;9.40;99.90;;;;;;5055250;28;20035;-84
2022/05/25 02:49:42;;;;;;;5.97;1.75;;;9.40;99.90;;;;;;5055095;28;20683;-84
2022/05/25 02:52:09;;;;;;;4.25;1.80;;;9.40;99.90;;;;;;5054861;28;20127;-84
2022/05/25 02:54:35;;;;;;;5.85;2.15;;;9.40;99.90;;;;;;5071400;28;20037;-84
2022/05/25 02:57:01;;;;;;;4.18;2.15;;;9.40;99.90;;;;;;5054663;28;20515;-84
2022/05/25 02:59:27;;;;;;;6.68;2.47;;;9.40;99.90;;;;;;5053898;28;20109;-85
2022/05/25 03:01:53;;;;;;;3.45;1.90;;;9.40;99.90;;;;;;5053636;28;20171;-84
2022/05/25 03:04:19;;;;;;;3.30;1.73;;;9.50;99.90;;;;;;5054433;28;20063;-84
2022/05/25 03:06:45;;;;;;;8.07;2.30;;;9.50;99.90;;;;;;5054867;28;20029;-84
2022/05/25 03:09:11;;;;;;;4.93;1.85;;;9.50;99.90;;;;;;5055003;28;20750;-84
2022/05/25 03:11:37;;;;;;;7.07;2.25;;;9.50;99.90;;;;;;5071469;28;20021;-84
2022/05/25 03:14:03;;;;;;;6.57;3.50;;;9.60;99.90;;;;;;5071724;28;20400;-84
2022/05/25 03:16:30;;;;;;;2.92;2.15;;;9.50;99.90;;;;;;5055272;28;20032;-84
2022/05/25 03:18:58;;;;;;;5.78;2.22;;;9.40;99.90;;;;;;5054889;28;20657;-84
2022/05/25 03:21:25;;;;;;;4.10;2.58;;;9.30;99.90;;;;;;5055461;28;20032;-84
2022/05/25 03:23:51;;;;;;;4.88;2.50;;;9.40;99.90;;;;;;5054782;28;20090;-84
2022/05/25 03:26:17;;;;;;;5.28;2.00;;;9.40;99.90;;;;;;5071531;28;20127;-84
2022/05/25 03:28:44;;;;;;;5.25;2.22;;;9.40;99.90;;;;;;5054919;28;20071;-84
2022/05/25 03:31:09;;;;;;;4.45;1.90;;;9.40;99.90;;;;;;5071747;28;20024;-82
2022/05/25 03:33:35;;;;;;;4.88;2.35;;;9.40;99.90;;;;;;5054005;28;20043;-82
2022/05/25 03:36:02;;;;;;;4.07;2.40;;;9.40;99.90;;;;;;5071295;28;20439;-82
2022/05/25 03:38:28;;;;;;;5.25;2.25;;;9.50;99.90;;;;;;5054543;28;20495;-82
2022/05/25 03:40:55;;;;;;;3.15;2.30;;;9.50;99.90;;;;;;5054748;28;20067;-82
2022/05/25 03:43:20;;;;;;;3.55;2.15;;;9.50;99.90;;;;;;5071091;28;20648;-82
2022/05/25 03:45:47;;;;;;;7.75;2.63;;;9.50;99.90;;;;;;5054030;28;20166;-82
2022/05/25 03:48:13;;;;;;;4.10;2.35;;;9.50;99.90;;;;;;5053596;28;20048;-82
2022/05/25 03:50:50;;;;;;;4.68;2.40;;;9.60;99.90;;;;;;5053690;28;20028;-82
2022/05/25 03:53:16;;;;;;;2.08;1.88;;;9.60;99.90;;;;;;5054482;28;20039;-82
2022/05/25 03:55:42;;;;;;;4.78;2.00;;;9.60;99.90;;;;;;5054373;28;20025;-82
2022/05/25 03:58:09;;;;;;;5.82;2.10;;;9.60;99.90;;;;;;5054264;28;20129;-82
2022/05/25 04:00:35;;;;;;;6.28;1.90;;;9.60;99.90;;;;;;5054357;28;20162;-82
2022/05/25 04:03:02;;;;;;;5.63;2.45;;;9.60;99.90;;;;;;5054247;28;20032;-82
2022/05/25 04:05:29;;;;;;;5.68;2.47;;;9.60;99.90;;;;;;5052329;28;20048;-81
2022/05/25 04:07:56;;;;;;;8.27;2.40;;;9.60;99.90;;;;;;5053528;28;20387;-82
2022/05/25 04:10:22;;;;;;;3.75;2.53;;;9.60;99.90;;;;;;5072211;28;20515;-82
2022/05/25 04:12:49;;;;;;;8.13;2.45;;;9.70;99.90;;;;;;5071517;28;20123;-82
2022/05/25 04:15:19;;;;;;;4.85;2.15;;;9.70;99.90;;;;;;5058340;28;20037;-82
2022/05/25 04:17:45;;;;;;;3.28;1.88;;;9.70;99.90;;;;;;5057398;28;20431;-82
2022/05/25 04:20:11;;;;;;;9.30;1.67;;;9.70;99.90;;;;;;5074452;28;20047;-82
2022/05/25 04:22:37;;;;;;;2.83;1.58;;;9.70;99.90;;;;;;5074861;28;20028;-82
2022/05/25 04:25:07;;;;;;;6.18;2.22;;;9.80;99.90;;;;;;5076088;28;20028;-82
2022/05/25 04:27:34;;;;;;;11.57;2.50;;;9.70;99.90;;;;;;5074804;28;20099;-82
2022/05/25 04:30:00;;;;;;;3.80;2.10;;;9.60;99.90;;;;;;5075327;28;20497;-82
2022/05/25 04:32:25;;;;;;;4.72;2.28;;;9.60;99.90;;;;;;5057147;28;20024;-82
2022/05/25 04:34:51;;;;;;;4.85;2.17;;;9.50;99.90;;;;;;5057600;28;20032;-82
2022/05/25 04:40:01;;;;;;;2.70;1.73;;;9.40;99.90;;;;;;5073961;28;20106;-81
2022/05/25 04:42:29;;;;;;;5.80;2.15;;;9.40;99.90;;;;;;5075747;28;20032;-82
2022/05/25 04:45:00;;;;;;;3.30;2.15;;;9.30;99.90;;;;;;5057672;28;20032;-82
2022/05/25 04:47:37;;;;;;;4.05;1.95;;;9.20;99.90;;;;;;5057852;28;20036;-82
2022/05/25 04:50:06;;;;;;;4.25;2.60;;;9.20;99.90;;;;;;5057398;28;20036;-82
2022/05/25 04:52:33;;;;;;;6.40;2.50;;;9.10;99.90;;;;;;5057795;28;20028;-82
2022/05/25 04:54:59;;;;;;;4.35;2.30;;;9.00;99.90;;;;;;5057752;28;20510;-82
2022/05/25 04:57:27;;;;;;;7.88;2.75;;;9.00;99.90;;;;;;5073975;28;20032;-82
2022/05/25 05:00:01;;;;;;;5.40;2.50;;;8.90;99.90;;;;;;5073706;28;20036;-82
2022/05/25 05:02:29;;;;;;;7.88;2.90;;;8.80;99.90;;;;;;5057101;28;20032;-81
2022/05/25 05:04:55;;;;;;;4.97;2.75;;;8.80;99.90;;;;;;5056697;28;20039;-82
2022/05/25 05:07:31;;;;;;;5.10;2.80;;;8.80;99.90;;;;;;5074011;28;20086;-82
2022/05/25 05:09:57;;;;;;;6.78;2.50;;;8.70;99.90;;;;;;5056798;28;20124;-82
2022/05/25 05:12:23;;;;;;;3.63;2.50;;;8.60;99.90;;;;;;5056713;28;20036;-82
2022/05/25 05:14:49;;;;;;;4.10;3.38;;;8.60;99.90;;;;;;5056765;28;20029;-82
2022/05/25 05:17:14;;;;;;;10.25;3.30;;;8.60;99.90;;;;;;5073269;28;20086;-82
2022/05/25 05:20:01;;;;;;;4.45;2.80;;;8.80;99.90;;;;;;5072869;28;20033;-82
2022/05/25 05:22:27;;;;;;;5.50;2.85;;;8.90;99.90;;;;;;5056459;28;20036;-81
2022/05/25 05:24:52;;;;;;;5.65;3.15;;;9.10;99.90;;;;;;5072706;28;20033;-82
2022/05/25 05:27:19;;;;;;;13.60;3.90;;;9.20;99.90;;;;;;5090078;28;20112;-82
2022/05/25 05:29:44;;;;;;;8.32;3.30;;;9.40;99.90;;;;;;5073301;28;20119;-82
2022/05/25 05:32:10;;;;;;;6.35;2.90;;;9.50;99.90;;;;;;5051530;28;20771;-82
2022/05/25 05:34:37;;;;;;;4.55;2.08;;;9.70;99.90;;;;;;5072959;28;20059;-82
2022/05/25 05:37:16;;;;;;;7.05;2.60;;;9.80;99.90;;;;;;5072921;28;20064;-82
2022/05/25 05:39:44;;;;;;;8.75;2.97;;;10.00;99.90;;;;;;5055785;28;20511;-82
2022/05/25 05:42:14;;;;;;;5.65;3.30;;;10.30;99.90;;;;;;5074102;28;20025;-82
2022/05/25 05:45:12;;;;;;;8.10;4.05;;;10.50;99.90;;;;;;5056022;28;20509;-82
2022/05/25 05:47:45;;;;;;;7.82;4.40;;;10.90;99.90;;;;;;5040600;28;20044;-82
2022/05/25 05:50:12;;;;;;;13.75;4.22;;;11.10;99.90;;;;;;5055647;28;20423;-81
2022/05/25 05:52:38;;;;;;;8.20;4.47;;;11.20;99.90;;;;;;5072768;28;20029;-82
2022/05/25 05:55:05;;;;;;;9.05;4.07;;;11.40;99.90;;;;;;5055734;28;20032;-82
2022/05/25 05:57:33;;;;;;;7.20;3.92;;;11.50;99.90;;;;;;5055553;28;20040;-82
2022/05/25 05:59:59;;;;;;;12.02;4.53;;;11.60;99.90;;;;;;5055175;28;20045;-82
2022/05/25 06:02:25;;;;;;;5.63;3.33;;;11.60;99.90;;;;;;5055309;28;20041;-81
2022/05/25 06:04:50;;;;;;;4.78;3.55;;;11.70;99.90;;;;;;5054629;28;20097;-81
2022/05/25 06:08:09;;;;;;;7.38;3.42;;;11.80;99.90;;;;;;5054786;28;20034;-82
2022/05/25 06:10:37;;;;;;;7.07;3.17;;;11.90;99.90;;;;;;5055302;28;20033;-82
2022/05/25 06:13:05;;;;;;;3.85;2.22;;;12.00;99.90;;;;;;5055314;28;20032;-82
2022/05/25 06:20:59;;;;;;;5.28;2.03;;;12.30;99.90;;;;;;5072047;28;20033;-82
2022/05/25 06:23:25;;;;;;;11.32;3.67;;;12.40;99.90;;;;;;5073173;28;20434;-82
2022/05/25 06:25:50;;;;;;;27.08;2.63;;;12.40;99.90;;;;;;5054532;28;20029;-82
2022/05/25 06:28:16;;;;;;;3.40;2.00;;;12.50;99.90;;;;;;5051875;28;20479;-81
2022/05/25 06:30:42;;;;;;;4.07;1.90;;;12.50;99.90;;;;;;5055599;28;20044;-82
2022/05/25 06:33:07;;;;;;;6.72;2.42;;;12.60;99.90;;;;;;5073185;28;20039;-82
2022/05/25 06:35:34;;;;;;;6.95;2.15;;;12.60;99.90;;;;;;5072126;28;20032;-82
2022/05/25 06:38:01;;;;;;;5.30;1.80;;;12.60;99.90;;;;;;5055043;28;20574;-82
2022/05/25 06:40:27;;;;;;;6.07;2.00;;;12.70;99.90;;;;;;5055424;28;20029;-82
2022/05/25 06:42:53;;;;;;;6.40;2.30;;;12.80;99.90;;;;;;5054831;28;20146;-82
2022/05/25 06:45:21;;;;;;;7.20;2.42;;;12.80;99.90;;;;;;5055111;28;20594;-82
2022/05/25 06:47:47;;;;;;;10.00;2.10;;;12.90;99.90;;;;;;5071639;28;20044;-83
2022/05/25 06:50:13;;;;;;;4.63;1.90;;;13.00;99.90;;;;;;5054580;28;20029;-82
2022/05/25 06:52:39;;;;;;;6.65;2.22;;;13.10;99.90;;;;;;5071978;28;20665;-82
2022/05/25 06:55:06;;;;;;;3.70;2.38;;;13.10;99.90;;;;;;5055212;28;20036;-82
2022/05/25 06:57:32;;;;;;;20.08;3.22;;;13.10;99.90;;;;;;5055162;28;20506;-82
2022/05/25 06:59:58;;;;;;;5.20;2.38;;;13.10;99.90;;;;;;5054707;28;20036;-82
2022/05/25 07:02:25;;;;;;;9.20;2.67;;;13.10;99.90;;;;;;5054482;28;20021;-82
2022/05/25 07:04:52;;;;;;;9.30;3.08;;;13.10;99.90;;;;;;5054082;28;20483;-82
2022/05/25 07:07:19;;;;;;;7.32;3.08;;;13.10;99.90;;;;;;5054544;28;20041;-82
2022/05/25 07:09:45;;;;;;;8.27;3.00;;;13.10;99.90;;;;;;5054637;28;20526;-82
2022/05/25 07:12:11;;;;;;;6.90;2.92;;;13.10;99.90;;;;;;5071616;28;20052;-83
2022/05/25 07:14:39;;;;;;;6.07;2.80;;;13.20;99.90;;;;;;5072984;28;20788;-82
2022/05/25 07:17:05;;;;;;;5.65;2.85;;;13.30;99.90;;;;;;5071487;28;20079;-82
2022/05/25 07:19:31;;;;;;;6.43;2.42;;;13.30;99.90;;;;;;5054790;28;20041;-82
2022/05/25 07:22:50;;;;;;;10.25;3.10;;;13.50;99.90;;;;;;5050857;28;20037;-82
2022/05/25 07:25:15;;;;;;;5.55;2.58;;;13.60;99.90;;;;;;5071202;28;20044;-82
2022/05/25 07:27:41;;;;;;;6.72;2.70;;;13.60;99.90;;;;;;5071588;28;20472;-83
2022/05/25 07:30:09;;;;;;;8.45;2.53;;;13.60;99.90;;;;;;5054150;28;20482;-83
2022/05/25 07:32:35;;;;;;;5.53;2.65;;;13.60;99.90;;;;;;5054439;28;20388;-82
2022/05/25 07:35:04;;;;;;;5.45;2.83;;;13.60;99.90;;;;;;5054331;28;20024;-81
2022/05/25 07:37:37;;;;;;;4.00;2.03;;;13.70;99.90;;;;;;5054062;28;20064;-82
2022/05/25 07:40:18;;;;;;;7.05;1.88;;;13.80;99.90;;;;;;5054175;28;20037;-83
2022/05/25 07:42:48;;;;;;;5.15;1.80;;;13.80;99.90;;;;;;5071286;28;20028;-82
2022/05/25 07:45:14;;;;;;;4.60;1.75;;;13.90;99.90;;;;;;5071491;28;20037;-82
2022/05/25 07:47:40;;;;;;;5.55;2.40;;;14.10;99.90;;;;;;5072648;28;20028;-82
2022/05/25 07:50:07;;;;;;;6.43;1.75;;;15.00;99.90;;;;;;5058541;28;20029;-82
2022/05/25 07:52:36;;;;;;;5.82;1.58;;;16.50;99.90;;;;;;5058513;28;20066;-82
2022/05/25 07:55:03;;;;;;;4.05;1.63;;;18.00;99.90;;;;;;5058202;28;20040;-82
2022/05/25 07:57:29;;;;;;;4.70;2.03;;;19.20;99.90;;;;;;5058435;28;20520;-83
2022/05/25 07:59:55;;;;;;;8.35;1.65;;;20.30;99.90;;;;;;5074715;28;20028;-83
2022/05/25 08:08:03;;;;;;;9.50;3.28;;;21.40;99.90;;;;;;5076091;28;20029;-82
2022/05/25 08:10:30;;;;;;;3.58;1.38;;;22.50;98.20;;;;;;5057581;28;20036;-82
2022/05/25 08:12:57;;;;;;;3.63;1.40;;;23.00;95.20;;;;;;5073879;28;20028;-82
2022/05/25 08:15:24;;;;;;;3.65;1.40;;;22.90;93.80;;;;;;5057842;28;20032;-83
2022/05/25 08:17:50;;;;;;;4.25;1.17;;;22.90;92.40;;;;;;5070138;28;20066;-82
2022/05/25 08:20:17;;;;;;;4.82;1.05;;;23.60;91.90;;;;;;5074486;28;20387;-82
2022/05/25 08:22:43;;;;;;;2.78;1.40;;;23.50;90.60;;;;;;5057958;28;20044;-82
2022/05/25 08:25:10;;;;;;;1.75;1.00;;;22.50;90.60;;;;;;5057751;28;20660;-82
2022/05/25 08:27:39;;;;;;;5.43;1.73;;;21.90;91.60;;;;;;5057875;28;20028;-82
2022/05/25 08:30:19;;;;;;;3.85;0.95;;;21.90;91.50;;;;;;5057770;28;20742;-82
2022/05/25 08:32:45;;;;;;;7.95;1.60;;;22.10;91.10;;;;;;5057863;28;20040;-82
2022/05/25 08:35:11;;;;;;;3.10;1.25;;;22.70;89.70;;;;;;5074245;28;20033;-82
2022/05/25 08:37:37;;;;;;;7.30;1.25;;;23.00;88.10;;;;;;5073811;28;20024;-82
2022/05/25 08:40:04;;;;;;;3.55;1.50;;;22.70;88.80;;;;;;5057141;28;20499;-82
2022/05/25 08:42:35;;;;;;;2.97;1.38;;;21.30;91.20;;;;;;5074249;28;20036;-82
2022/05/25 08:45:01;;;;;;;2.83;1.23;;;20.60;93.80;;;;;;5074150;28;20040;-82
2022/05/25 08:47:27;;;;;;;5.53;1.20;;;20.90;92.90;;;;;;5056798;28;20043;-82
2022/05/25 08:49:55;;;;;;;2.65;1.08;;;19.70;93.10;;;;;;5056907;28;20051;-82
2022/05/25 08:52:41;;;;;;;2.67;1.13;;;18.40;93.90;;;;;;5057044;28;20027;-83
2022/05/25 08:55:10;;;;;;;5.72;1.35;;;17.70;96.10;;;;;;5056867;28;20507;-82
2022/05/25 08:57:57;;;;;;;2.90;1.23;;;17.40;98.30;;;;;;5056484;28;20539;-82
2022/05/25 09:00:23;;;;;;;4.88;1.13;;;18.50;99.90;;;;;;5071991;28;20131;-82
2022/05/25 09:03:27;;;;;;;4.05;1.33;;;19.40;97.90;;;;;;5056377;28;20035;-82
2022/05/25 09:06:05;;;;;;;8.77;1.63;;;18.90;98.40;;;;;;5072647;28;20036;-83
2022/05/25 09:09:05;;;;;;;4.05;1.38;;;20.10;97.70;;;;;;5073297;28;20028;-82
2022/05/25 09:11:43;;;;;;;6.65;1.40;;;21.50;93.50;;;;;;5073178;28;20044;-82
2022/05/25 09:14:33;;;;;;;7.63;1.60;;;21.90;92.20;;;;;;5090381;28;20044;-82
2022/05/25 09:17:04;;;;;;;5.07;1.23;;;20.60;92.60;;;;;;5073185;28;20060;-83
2022/05/25 09:19:35;;;;;;;;;;;19.90;94.00;;;;;;5073873;28;20123;-83
2022/05/25 09:22:08;;;;;;;5.65;1.17;;;18.90;94.60;;;;;;5075135;28;19909;-83
2022/05/25 09:24:35;;;;;;;2.88;1.08;;;17.80;97.60;;;;;;5073271;28;20127;-83
2022/05/25 09:27:04;;;;;;;3.40;1.33;;;17.30;98.90;;;;;;5056480;28;20020;-82
2022/05/25 09:29:30;;;;;;;3.25;1.35;;;17.00;99.50;;;;;;5056556;28;20058;-82
2022/05/25 09:32:37;;;;;;;5.05;2.65;;;17.90;99.40;;;;;;5056710;28;20036;-83
2022/05/25 09:35:20;;;;;;;5.50;1.45;;;17.90;99.60;;;;;;5073315;28;20457;-83
2022/05/25 09:38:01;;;;;;;5.63;1.15;;;17.70;99.20;;;;;;5052019;28;20032;-82
2022/05/25 09:40:39;;;;;;;7.25;1.42;;;18.30;96.60;;;;;;5056231;28;20154;-82
2022/05/25 09:43:11;;;;;;;2.35;1.13;;;18.20;97.50;;;;;;5056149;28;20147;-83
2022/05/25 09:45:43;;;;;;;4.13;1.35;;;18.00;97.20;;;;;;5056354;28;20071;-82
2022/05/25 09:48:14;;;;;;;1.67;1.30;;;18.70;97.40;;;;;;5055890;28;20105;-81
2022/05/25 09:50:44;;;;;;;2.15;1.15;;;20.40;95.00;;;;;;5055882;28;20062;-82
2022/05/25 09:53:14;;;;;;;8.23;1.25;;;21.60;92.00;;;;;;5072388;28;20082;-82
2022/05/25 09:55:45;;;;;;;3.75;1.10;;;22.40;91.20;;;;;;5055774;28;20028;-82
2022/05/25 09:58:22;;;;;;;6.10;1.02;;;22.90;88.60;;;;;;5055997;28;20060;-82
2022/05/25 10:00:59;;;;;;;4.18;1.10;;;23.50;84.70;;;;;;5055773;28;20131;-82
2022/05/25 10:03:39;;;;;;;5.90;1.17;;;22.40;87.00;;;;;;5072236;28;20036;-82
2022/05/25 10:06:23;;;;;;;3.65;1.42;;;21.70;88.40;;;;;;5071839;28;20047;-83
2022/05/25 10:09:07;;;;;;;3.92;1.23;;;22.50;87.30;;;;;;5072431;28;20559;-82
2022/05/25 10:11:53;;;;;;;2.08;0.82;;;22.20;83.90;;;;;;5055434;28;20495;-82
2022/05/25 10:14:30;;;;;;;4.63;1.30;;;20.60;87.30;;;;;;5072347;28;20033;-82
2022/05/25 10:17:09;;;;;;;5.40;1.30;;;19.70;90.70;;;;;;5055529;28;20133;-83
2022/05/25 10:19:52;;;;;;;2.35;0.93;;;18.70;92.90;;;;;;5055008;28;20036;-83
2022/05/25 10:22:42;;;;;;;2.97;1.05;;;18.40;94.10;;;;;;5071567;28;20036;-83
2022/05/25 10:25:12;;;;;;;1.48;1.23;;;18.40;94.80;;;;;;5054703;28;20127;-83
2022/05/25 10:27:44;;;;;;;4.95;1.33;;;18.10;94.90;;;;;;5067999;28;20875;-83
2022/05/25 10:37:00;;;;;;;2.25;1.02;;;20.60;93.50;;;;;;5071871;28;20043;-83
2022/05/25 10:39:22;;;;;;;4.45;1.40;;;21.10;93.50;;;;;;5085260;28;20082;-81
2022/05/25 10:42:18;;;;;;;5.18;1.55;;;21.60;90.80;;;;;;5072947;28;20044;-80
2022/05/25 10:45:09;;;;;;;1.83;0.90;;;21.80;91.80;;;;;;5055203;28;20043;-80
2022/05/25 10:47:59;;;;;;;4.38;1.30;;;21.70;90.10;;;;;;5055236;28;20032;-80
2022/05/25 10:50:32;;;;;;;4.30;0.90;;;21.20;92.40;;;;;;5071643;28;20472;-81
2022/05/25 10:53:36;;;;;;;3.47;1.27;;;21.60;91.60;;;;;;5055225;28;20033;-82
2022/05/25 10:56:27;;;;;;;4.72;1.20;;;21.80;90.50;;;;;;5054757;28;20082;-81
2022/05/25 10:59:08;;;;;;;4.43;1.08;;;22.00;89.90;;;;;;5054650;28;20066;-81
2022/05/25 11:01:37;;;;;;;;;;;21.20;88.10;;;;;;5055081;28;20033;-82
2022/05/25 11:04:33;;;;;;;4.22;1.17;;;21.20;91.30;;;;;;5071011;28;20372;-82
2022/05/25 11:07:19;;;;;;;3.58;1.02;;;21.10;90.20;;;;;;5054474;28;20025;-82
2022/05/25 11:10:09;;;;;;;3.90;1.10;;;21.30;89.90;;;;;;5071077;28;20074;-82
2022/05/25 11:12:57;;;;;;;5.25;1.98;;;21.30;90.00;;;;;;5071481;28;20561;-83
2022/05/25 11:15:35;;;;;;;2.40;1.45;;;20.70;91.20;;;;;;5070759;28;20037;-82
2022/05/25 11:18:01;;;;;;;3.33;1.23;;;20.40;90.80;;;;;;5054700;28;20032;-82
2022/05/25 11:20:45;;;;;;;4.63;1.30;;;19.90;92.30;;;;;;5071272;28;20032;-83
2022/05/25 11:23:35;;;;;;;7.78;1.30;;;19.60;91.70;;;;;;5070583;28;20036;-82
2022/05/25 11:26:23;;;;;;;3.25;1.00;;;18.90;92.10;;;;;;5053898;28;20033;-82
2022/05/25 11:29:00;;;;;;;2.40;1.10;;;19.20;94.20;;;;;;5070779;28;20025;-83
2022/05/25 11:31:51;;;;;;;7.65;1.33;;;19.70;92.80;;;;;;5054598;28;20027;-82
2022/05/25 11:34:57;;;;;;;8.95;1.10;;;20.70;92.50;;;;;;5071529;28;20032;-83
2022/05/25 11:37:42;;;;;;;8.80;2.17;;;21.10;92.30;;;;;;5054578;28;20044;-83
2022/05/25 11:40:29;;;;;;;3.38;1.35;;;21.40;91.00;;;;;;5070985;28;20557;-83
2022/05/25 11:43:19;;;;;;;3.05;0.93;;;21.30;89.30;;;;;;5054861;28;20039;-83
2022/05/25 11:45:47;;;;;;;3.58;1.42;;;22.00;90.60;;;;;;5054515;28;20438;-81
2022/05/25 11:48:41;;;;;;;2.55;1.25;;;21.50;86.60;;;;;;5070855;28;20060;-81
2022/05/25 11:51:22;;;;;;;11.45;1.10;;;21.50;90.90;;;;;;5053839;28;20035;-81
2022/05/25 11:54:08;;;;;;;82.28;40.13;;;21.40;90.40;;;;;;5054340;28;20036;-81
2022/05/25 11:57:17;;;;;;;48.60;22.90;;;21.30;90.90;;;;;;5071213;28;20868;-81
2022/05/25 11:59:45;;;;;;;5.75;1.45;;;21.50;89.00;;;;;;5057064;28;20037;-81
2022/05/25 12:02:29;;;;;;;5.53;1.27;;;21.70;90.40;;;;;;5054399;28;20036;-81
2022/05/25 12:05:19;;;;;;;6.38;1.20;;;21.30;89.10;;;;;;5053989;28;20119;-82
2022/05/25 12:07:51;;;;;;;4.82;1.15;;;21.80;89.00;;;;;;5054790;28;20044;-82
2022/05/25 12:10:24;;;;;;;5.22;0.93;;;21.90;82.80;;;;;;5071925;28;20491;-83
2022/05/25 12:13:09;;;;;;;2.00;0.80;;;21.20;87.40;;;;;;5054570;28;20036;-82
2022/05/25 12:16:21;;;;;;;1.85;0.93;;;20.80;86.70;;;;;;5053221;28;20070;-83
2022/05/25 12:19:05;;;;;;;4.20;0.95;;;20.90;85.60;;;;;;5057990;28;20051;-83
2022/05/25 12:21:37;;;;;;;1.67;0.77;;;20.70;85.40;;;;;;5054077;28;20032;-83
2022/05/25 12:24:09;;;;;;;3.15;1.08;;;20.50;85.50;;;;;;5054418;28;20442;-83
2022/05/25 12:26:37;;;;;;;1.02;0.60;;;20.20;86.10;;;;;;5070944;28;20029;-82
2022/05/25 12:29:18;;;;;;;2.63;0.88;;;19.70;85.00;;;;;;5054176;28;20107;-82
2022/05/25 12:31:46;;;;;;;2.70;0.87;;;19.90;87.20;;;;;;5053868;28;20039;-82
2022/05/25 12:34:14;;;;;;;2.47;0.90;;;20.80;84.40;;;;;;5055764;28;20029;-83
2022/05/25 12:36:42;;;;;;;1.23;0.60;;;21.40;81.60;;;;;;5057600;28;20042;-83
2022/05/25 12:39:11;;;;;;;2.55;1.00;;;20.70;83.30;;;;;;5057374;28;20036;-83
2022/05/25 12:41:39;;;;;;;2.78;0.93;;;20.70;84.90;;;;;;5057232;28;20486;-83
2022/05/25 12:50:00;;;;;;;3.17;0.90;;;19.80;85.90;;;;;;5074117;28;20029;-83
2022/05/25 12:52:29;;;;;;;1.25;0.82;;;19.30;86.90;;;;;;5057093;28;20395;-82
2022/05/25 12:55:17;;;;;;;5.93;1.15;;;18.70;86.80;;;;;;5057362;28;20430;-82
2022/05/25 12:57:50;;;;;;;2.15;0.90;;;18.30;90.30;;;;;;5057422;28;20139;-81
2022/05/25 13:00:23;;;;;;;10.50;1.50;;;19.20;89.80;;;;;;5090316;28;20032;-81
2022/05/25 13:02:55;;;;;;;3.22;1.08;;;19.30;89.70;;;;;;5056931;28;20028;-81
2022/05/25 13:05:44;;;;;;;9.38;1.30;;;19.30;89.50;;;;;;5056235;28;20518;-82
2022/05/25 13:08:59;;;;;;;2.58;1.00;;;19.20;90.40;;;;;;5073770;28;20032;-81
2022/05/25 13:11:39;;;;;;;1.33;0.80;;;19.60;90.00;;;;;;5047727;28;20090;-83
2022/05/25 13:14:17;;;;;;;8.00;1.35;;;20.70;88.90;;;;;;5056601;28;20036;-83
2022/05/25 13:17:33;;;;;;;2.63;0.68;;;21.40;86.10;;;;;;5056272;28;20033;-83
2022/05/25 13:20:00;;;;;;;2.47;0.70;;;22.00;82.20;;;;;;5073150;28;20038;-83
2022/05/25 13:22:28;;;;;;;2.78;0.90;;;22.60;84.00;;;;;;5056490;28;20071;-82
2022/05/25 13:25:02;;;;;;;2.53;0.70;;;22.90;81.30;;;;;;5056566;28;20033;-83
2022/05/25 13:27:46;;;;;;;5.38;0.85;;;22.80;79.50;;;;;;5056165;28;20029;-83
2022/05/25 13:30:36;;;;;;;3.42;0.65;;;21.70;78.40;;;;;;5056185;28;20028;-83
2022/05/25 13:33:15;;;;;;;5.07;0.82;;;20.60;81.00;;;;;;5056567;28;20077;-83
2022/05/25 13:35:45;;;;;;;1.98;1.40;;;20.30;85.70;;;;;;5055995;28;20051;-82
2022/05/25 13:38:23;;;;;;;1.55;0.88;;;20.10;85.40;;;;;;5055806;28;20039;-82
2022/05/25 13:41:03;;;;;;;2.10;0.85;;;19.80;85.50;;;;;;5073757;28;20662;-83
2022/05/25 13:44:00;;;;;;;5.68;1.02;;;19.20;84.50;;;;;;5072873;28;20090;-83
2022/05/25 13:46:44;;;;;;;3.05;0.90;;;19.50;87.50;;;;;;5055905;28;20033;-82
2022/05/25 13:49:58;;;;;;;4.43;0.90;;;20.30;85.20;;;;;;5055596;28;20029;-83
2022/05/25 13:52:31;;;;;;;4.45;0.90;;;20.90;84.60;;;;;;5030943;28;20066;-83
2022/05/25 13:55:03;;;;;;;5.53;0.80;;;22.30;84.60;;;;;;5055910;28;20036;-83
2022/05/25 13:57:49;;;;;;;3.58;0.93;;;23.10;76.40;;;;;;5056062;28;20391;-83
2022/05/25 14:00:22;;;;;;;5.43;1.63;;;23.60;77.60;;;;;;5055776;28;20044;-84
2022/05/25 14:02:55;;;;;;;0.52;0.40;;;23.90;74.60;;;;;;5072969;28;20024;-83
2022/05/25 14:05:25;;;;;;;4.40;0.90;;;23.60;70.40;;;;;;5055652;28;20036;-84